<?xml version="1.0" encoding="UTF-8" standalone="no" ?>
<gpx xmlns="http://www.topografix.com/GPX/1/1" xmlns:xsi="http://www.w3.org/2001/XMLSchema-instance" xsi:schemaLocation="http://www.topografix.com/GPX/1/1 http://www.topografix.com/GPX/1/1/gpx.xsd" version="1.1" creator="VisuGPX - https://www.visugpx.com">
  <metadata>
    <name>Vert 14Km parc</name>
  </metadata>
  <trk>
    <name><![CDATA[Parcours vert 14 km marche du 21:09:2025-21818332-21827632]]></name>
    <extensions>
      <line xmlns="http://www.topografix.com/GPX/gpx_style/0/2">
        <color>0000FF</color>
        <width>4</width>
      </line>
    </extensions>
    <trkseg>
      <trkpt lat="46.17153" lon="4.80257">
        <ele>175</ele>
        <time>2025-07-06T05:40:15Z</time>
      </trkpt>
      <trkpt lat="46.17165" lon="4.80337">
        <ele>173</ele>
        <time>2025-07-06T05:38:59Z</time>
      </trkpt>
      <trkpt lat="46.17196" lon="4.80439">
        <ele>174</ele>
        <time>2025-07-06T05:37:16Z</time>
      </trkpt>
      <trkpt lat="46.17173" lon="4.80465">
        <ele>174</ele>
        <time>2025-07-06T05:36:37Z</time>
      </trkpt>
      <trkpt lat="46.1718" lon="4.8057">
        <ele>175</ele>
        <time>2025-07-06T05:35:00Z</time>
      </trkpt>
      <trkpt lat="46.17191" lon="4.80642">
        <ele>175</ele>
        <time>2025-07-06T05:33:52Z</time>
      </trkpt>
      <trkpt lat="46.17199" lon="4.80726">
        <ele>173</ele>
        <time>2025-07-06T05:32:34Z</time>
      </trkpt>
      <trkpt lat="46.1724" lon="4.80937">
        <ele>172</ele>
        <time>2025-07-06T05:29:11Z</time>
      </trkpt>
      <trkpt lat="46.1725" lon="4.81067">
        <ele>173</ele>
        <time>2025-07-06T05:27:10Z</time>
      </trkpt>
      <trkpt lat="46.17264" lon="4.81268">
        <ele>174</ele>
        <time>2025-07-06T05:24:03Z</time>
      </trkpt>
      <trkpt lat="46.17328" lon="4.81343">
        <ele>176</ele>
        <time>2025-07-06T05:22:13Z</time>
      </trkpt>
      <trkpt lat="46.17429" lon="4.81367">
        <ele>173</ele>
        <time>2025-07-06T05:19:57Z</time>
      </trkpt>
      <trkpt lat="46.17461" lon="4.81383">
        <ele>174</ele>
        <time>2025-07-06T05:19:12Z</time>
      </trkpt>
      <trkpt lat="46.17487" lon="4.81418">
        <ele>174</ele>
        <time>2025-07-06T05:18:24Z</time>
      </trkpt>
      <trkpt lat="46.17511" lon="4.8144">
        <ele>174</ele>
        <time>2025-07-06T05:17:46Z</time>
      </trkpt>
      <trkpt lat="46.17528" lon="4.81439">
        <ele>174</ele>
        <time>2025-07-06T05:17:24Z</time>
      </trkpt>
      <trkpt lat="46.17582" lon="4.8145">
        <ele>174</ele>
        <time>2025-07-06T05:16:11Z</time>
      </trkpt>
      <trkpt lat="46.17728" lon="4.81488">
        <ele>177</ele>
        <time>2025-07-06T05:12:53Z</time>
      </trkpt>
      <trkpt lat="46.17745" lon="4.81546">
        <ele>177</ele>
        <time>2025-07-06T05:11:55Z</time>
      </trkpt>
      <trkpt lat="46.17758" lon="4.81614">
        <ele>177</ele>
        <time>2025-07-06T05:10:49Z</time>
      </trkpt>
      <trkpt lat="46.17781" lon="4.81608">
        <ele>177</ele>
        <time>2025-07-06T05:10:18Z</time>
      </trkpt>
      <trkpt lat="46.17815" lon="4.81646">
        <ele>176</ele>
        <time>2025-07-06T05:09:21Z</time>
      </trkpt>
      <trkpt lat="46.17826" lon="4.81689">
        <ele>176</ele>
        <time>2025-07-06T05:08:39Z</time>
      </trkpt>
      <trkpt lat="46.17932" lon="4.8172">
        <ele>177</ele>
        <time>2025-07-06T05:06:14Z</time>
      </trkpt>
      <trkpt lat="46.17919" lon="4.81834">
        <ele>177</ele>
        <time>2025-07-06T05:04:27Z</time>
      </trkpt>
      <trkpt lat="46.1793" lon="4.81849">
        <ele>177</ele>
        <time>2025-07-06T05:04:07Z</time>
      </trkpt>
      <trkpt lat="46.17929" lon="4.81943">
        <ele>176</ele>
        <time>2025-07-06T05:02:40Z</time>
      </trkpt>
      <trkpt lat="46.17906" lon="4.81952">
        <ele>176</ele>
        <time>2025-07-06T05:02:09Z</time>
      </trkpt>
      <trkpt lat="46.1789" lon="4.81935">
        <ele>176</ele>
        <time>2025-07-06T05:01:42Z</time>
      </trkpt>
      <trkpt lat="46.17886" lon="4.81943">
        <ele>176</ele>
        <time>2025-07-06T05:01:33Z</time>
      </trkpt>
      <trkpt lat="46.17836" lon="4.81891">
        <ele>177</ele>
        <time>2025-07-06T05:00:11Z</time>
      </trkpt>
      <trkpt lat="46.17836" lon="4.81956">
        <ele>177</ele>
        <time>2025-07-06T04:59:11Z</time>
      </trkpt>
      <trkpt lat="46.17857" lon="4.82173">
        <ele>176</ele>
        <time>2025-07-06T04:55:48Z</time>
      </trkpt>
      <trkpt lat="46.17868" lon="4.82259">
        <ele>177</ele>
        <time>2025-07-06T04:54:27Z</time>
      </trkpt>
      <trkpt lat="46.17901" lon="4.82445">
        <ele>177</ele>
        <time>2025-07-06T04:51:30Z</time>
      </trkpt>
      <trkpt lat="46.17919" lon="4.82507">
        <ele>176</ele>
        <time>2025-07-06T04:50:28Z</time>
      </trkpt>
      <trkpt lat="46.17937" lon="4.8262">
        <ele>176</ele>
        <time>2025-07-06T04:48:41Z</time>
      </trkpt>
      <trkpt lat="46.17963" lon="4.82768">
        <ele>178</ele>
        <time>2025-07-06T04:46:20Z</time>
      </trkpt>
      <trkpt lat="46.18025" lon="4.82878">
        <ele>178</ele>
        <time>2025-07-06T04:44:09Z</time>
      </trkpt>
      <trkpt lat="46.18008" lon="4.82945">
        <ele>178</ele>
        <time>2025-07-06T04:43:03Z</time>
      </trkpt>
      <trkpt lat="46.18" lon="4.82975">
        <ele>179</ele>
        <time>2025-07-06T04:42:33Z</time>
      </trkpt>
      <trkpt lat="46.1797" lon="4.83015">
        <ele>180</ele>
        <time>2025-07-06T04:41:39Z</time>
      </trkpt>
      <trkpt lat="46.18008" lon="4.83133">
        <ele>184</ele>
        <time>2025-07-06T04:39:38Z</time>
      </trkpt>
      <trkpt lat="46.18014" lon="4.83225">
        <ele>186</ele>
        <time>2025-07-06T04:38:13Z</time>
      </trkpt>
      <trkpt lat="46.18043" lon="4.8334">
        <ele>190</ele>
        <time>2025-07-06T04:36:20Z</time>
      </trkpt>
      <trkpt lat="46.18067" lon="4.8348">
        <ele>193</ele>
        <time>2025-07-06T04:34:07Z</time>
      </trkpt>
      <trkpt lat="46.17991" lon="4.8348">
        <ele>192</ele>
        <time>2025-07-06T04:32:25Z</time>
      </trkpt>
      <trkpt lat="46.17874" lon="4.83464">
        <ele>189</ele>
        <time>2025-07-06T04:29:48Z</time>
      </trkpt>
      <trkpt lat="46.1784" lon="4.83456">
        <ele>187</ele>
        <time>2025-07-06T04:29:02Z</time>
      </trkpt>
      <trkpt lat="46.17749" lon="4.83416">
        <ele>185</ele>
        <time>2025-07-06T04:26:55Z</time>
      </trkpt>
      <trkpt lat="46.17777" lon="4.83609">
        <ele>192</ele>
        <time>2025-07-06T04:23:53Z</time>
      </trkpt>
      <trkpt lat="46.17782" lon="4.83765">
        <ele>193</ele>
        <time>2025-07-06T04:21:29Z</time>
      </trkpt>
      <trkpt lat="46.1779" lon="4.83869">
        <ele>193</ele>
        <time>2025-07-06T04:19:52Z</time>
      </trkpt>
      <trkpt lat="46.1779" lon="4.83972">
        <ele>195</ele>
        <time>2025-07-06T04:18:17Z</time>
      </trkpt>
      <trkpt lat="46.17788" lon="4.84075">
        <ele>195</ele>
        <time>2025-07-06T04:16:42Z</time>
      </trkpt>
      <trkpt lat="46.17781" lon="4.84108">
        <ele>195</ele>
        <time>2025-07-06T04:16:10Z</time>
      </trkpt>
      <trkpt lat="46.17744" lon="4.84219">
        <ele>195</ele>
        <time>2025-07-06T04:14:16Z</time>
      </trkpt>
      <trkpt lat="46.17788" lon="4.84302">
        <ele>197</ele>
        <time>2025-07-06T04:12:40Z</time>
      </trkpt>
      <trkpt lat="46.17732" lon="4.8439">
        <ele>199</ele>
        <time>2025-07-06T04:10:49Z</time>
      </trkpt>
      <trkpt lat="46.17701" lon="4.84452">
        <ele>199</ele>
        <time>2025-07-06T04:09:38Z</time>
      </trkpt>
      <trkpt lat="46.17665" lon="4.84559">
        <ele>200</ele>
        <time>2025-07-06T04:07:48Z</time>
      </trkpt>
      <trkpt lat="46.17619" lon="4.84668">
        <ele>204</ele>
        <time>2025-07-06T04:05:51Z</time>
      </trkpt>
      <trkpt lat="46.1761" lon="4.84708">
        <ele>207</ele>
        <time>2025-07-06T04:05:12Z</time>
      </trkpt>
      <trkpt lat="46.17635" lon="4.848">
        <ele>214</ele>
        <time>2025-07-06T04:03:40Z</time>
      </trkpt>
      <trkpt lat="46.17628" lon="4.84839">
        <ele>216</ele>
        <time>2025-07-06T04:03:03Z</time>
      </trkpt>
      <trkpt lat="46.17563" lon="4.84834">
        <ele>214</ele>
        <time>2025-07-06T04:01:36Z</time>
      </trkpt>
      <trkpt lat="46.17515" lon="4.84817">
        <ele>211</ele>
        <time>2025-07-06T04:00:30Z</time>
      </trkpt>
      <trkpt lat="46.17406" lon="4.84826">
        <ele>205</ele>
        <time>2025-07-06T03:58:05Z</time>
      </trkpt>
      <trkpt lat="46.17383" lon="4.84787">
        <ele>204</ele>
        <time>2025-07-06T03:57:17Z</time>
      </trkpt>
      <trkpt lat="46.17374" lon="4.84627">
        <ele>202</ele>
        <time>2025-07-06T03:54:49Z</time>
      </trkpt>
      <trkpt lat="46.17348" lon="4.84538">
        <ele>206</ele>
        <time>2025-07-06T03:53:20Z</time>
      </trkpt>
      <trkpt lat="46.17314" lon="4.84463">
        <ele>207</ele>
        <time>2025-07-06T03:51:57Z</time>
      </trkpt>
      <trkpt lat="46.17301" lon="4.84403">
        <ele>204</ele>
        <time>2025-07-06T03:50:59Z</time>
      </trkpt>
      <trkpt lat="46.17339" lon="4.84409">
        <ele>206</ele>
        <time>2025-07-06T03:50:08Z</time>
      </trkpt>
      <trkpt lat="46.1739" lon="4.84382">
        <ele>207</ele>
        <time>2025-07-06T03:48:55Z</time>
      </trkpt>
      <trkpt lat="46.17446" lon="4.84318">
        <ele>208</ele>
        <time>2025-07-06T03:47:20Z</time>
      </trkpt>
      <trkpt lat="46.1751" lon="4.8423">
        <ele>207</ele>
        <time>2025-07-06T03:45:22Z</time>
      </trkpt>
      <trkpt lat="46.17541" lon="4.84138">
        <ele>206</ele>
        <time>2025-07-06T03:43:47Z</time>
      </trkpt>
      <trkpt lat="46.17546" lon="4.84087">
        <ele>206</ele>
        <time>2025-07-06T03:43:00Z</time>
      </trkpt>
      <trkpt lat="46.17553" lon="4.83984">
        <ele>204</ele>
        <time>2025-07-06T03:41:24Z</time>
      </trkpt>
      <trkpt lat="46.17552" lon="4.8389">
        <ele>203</ele>
        <time>2025-07-06T03:39:57Z</time>
      </trkpt>
      <trkpt lat="46.1755" lon="4.83809">
        <ele>200</ele>
        <time>2025-07-06T03:38:42Z</time>
      </trkpt>
      <trkpt lat="46.17583" lon="4.83675">
        <ele>195</ele>
        <time>2025-07-06T03:36:31Z</time>
      </trkpt>
      <trkpt lat="46.17628" lon="4.83557">
        <ele>191</ele>
        <time>2025-07-06T03:34:27Z</time>
      </trkpt>
      <trkpt lat="46.17666" lon="4.83461">
        <ele>188</ele>
        <time>2025-07-06T03:32:44Z</time>
      </trkpt>
      <trkpt lat="46.1767" lon="4.83399">
        <ele>185</ele>
        <time>2025-07-06T03:31:47Z</time>
      </trkpt>
      <trkpt lat="46.17661" lon="4.83365">
        <ele>184</ele>
        <time>2025-07-06T03:31:13Z</time>
      </trkpt>
      <trkpt lat="46.17584" lon="4.83337">
        <ele>183</ele>
        <time>2025-07-06T03:29:27Z</time>
      </trkpt>
      <trkpt lat="46.1752" lon="4.83333">
        <ele>183</ele>
        <time>2025-07-06T03:28:02Z</time>
      </trkpt>
      <trkpt lat="46.17445" lon="4.83337">
        <ele>182</ele>
        <time>2025-07-06T03:26:22Z</time>
      </trkpt>
      <trkpt lat="46.17379" lon="4.8334">
        <ele>181</ele>
        <time>2025-07-06T03:24:53Z</time>
      </trkpt>
      <trkpt lat="46.17318" lon="4.8335">
        <ele>180</ele>
        <time>2025-07-06T03:23:32Z</time>
      </trkpt>
      <trkpt lat="46.17266" lon="4.83367">
        <ele>180</ele>
        <time>2025-07-06T03:22:20Z</time>
      </trkpt>
      <trkpt lat="46.1718" lon="4.83402">
        <ele>179</ele>
        <time>2025-07-06T03:20:21Z</time>
      </trkpt>
      <trkpt lat="46.17144" lon="4.83461">
        <ele>180</ele>
        <time>2025-07-06T03:19:09Z</time>
      </trkpt>
      <trkpt lat="46.17039" lon="4.83476">
        <ele>181</ele>
        <time>2025-07-06T03:16:48Z</time>
      </trkpt>
      <trkpt lat="46.16995" lon="4.83489">
        <ele>182</ele>
        <time>2025-07-06T03:15:48Z</time>
      </trkpt>
      <trkpt lat="46.1693" lon="4.8351">
        <ele>182</ele>
        <time>2025-07-06T03:14:19Z</time>
      </trkpt>
      <trkpt lat="46.16903" lon="4.83509">
        <ele>182</ele>
        <time>2025-07-06T03:13:43Z</time>
      </trkpt>
      <trkpt lat="46.16878" lon="4.83476">
        <ele>182</ele>
        <time>2025-07-06T03:12:58Z</time>
      </trkpt>
      <trkpt lat="46.16828" lon="4.83387">
        <ele>182</ele>
        <time>2025-07-06T03:11:12Z</time>
      </trkpt>
      <trkpt lat="46.16766" lon="4.83258">
        <ele>180</ele>
        <time>2025-07-06T03:08:47Z</time>
      </trkpt>
      <trkpt lat="46.1671" lon="4.83173">
        <ele>180</ele>
        <time>2025-07-06T03:06:58Z</time>
      </trkpt>
      <trkpt lat="46.16647" lon="4.83075">
        <ele>179</ele>
        <time>2025-07-06T03:04:55Z</time>
      </trkpt>
      <trkpt lat="46.16589" lon="4.83013">
        <ele>180</ele>
        <time>2025-07-06T03:03:18Z</time>
      </trkpt>
      <trkpt lat="46.16466" lon="4.83139">
        <ele>182</ele>
        <time>2025-07-06T02:59:57Z</time>
      </trkpt>
      <trkpt lat="46.16403" lon="4.83132">
        <ele>183</ele>
        <time>2025-07-06T02:58:33Z</time>
      </trkpt>
      <trkpt lat="46.16364" lon="4.83162">
        <ele>183</ele>
        <time>2025-07-06T02:57:34Z</time>
      </trkpt>
      <trkpt lat="46.16329" lon="4.83122">
        <ele>185</ele>
        <time>2025-07-06T02:56:34Z</time>
      </trkpt>
      <trkpt lat="46.16302" lon="4.82997">
        <ele>189</ele>
        <time>2025-07-06T02:54:33Z</time>
      </trkpt>
      <trkpt lat="46.16303" lon="4.8297">
        <ele>190</ele>
        <time>2025-07-06T02:54:08Z</time>
      </trkpt>
      <trkpt lat="46.16336" lon="4.82912">
        <ele>191</ele>
        <time>2025-07-06T02:52:59Z</time>
      </trkpt>
      <trkpt lat="46.16339" lon="4.82898">
        <ele>191</ele>
        <time>2025-07-06T02:52:45Z</time>
      </trkpt>
      <trkpt lat="46.16318" lon="4.82859">
        <ele>192</ele>
        <time>2025-07-06T02:52:00Z</time>
      </trkpt>
      <trkpt lat="46.16289" lon="4.82823">
        <ele>194</ele>
        <time>2025-07-06T02:51:09Z</time>
      </trkpt>
      <trkpt lat="46.1625" lon="4.82806">
        <ele>196</ele>
        <time>2025-07-06T02:50:14Z</time>
      </trkpt>
      <trkpt lat="46.16164" lon="4.82799">
        <ele>199</ele>
        <time>2025-07-06T02:48:19Z</time>
      </trkpt>
      <trkpt lat="46.16101" lon="4.82811">
        <ele>200</ele>
        <time>2025-07-06T02:46:54Z</time>
      </trkpt>
      <trkpt lat="46.16092" lon="4.82791">
        <ele>201</ele>
        <time>2025-07-06T02:46:32Z</time>
      </trkpt>
      <trkpt lat="46.16075" lon="4.82821">
        <ele>200</ele>
        <time>2025-07-06T02:45:57Z</time>
      </trkpt>
      <trkpt lat="46.16049" lon="4.82842">
        <ele>200</ele>
        <time>2025-07-06T02:45:17Z</time>
      </trkpt>
      <trkpt lat="46.15928" lon="4.8284">
        <ele>203</ele>
        <time>2025-07-06T02:42:35Z</time>
      </trkpt>
      <trkpt lat="46.15849" lon="4.82887">
        <ele>203</ele>
        <time>2025-07-06T02:40:41Z</time>
      </trkpt>
      <trkpt lat="46.15812" lon="4.82895">
        <ele>204</ele>
        <time>2025-07-06T02:39:51Z</time>
      </trkpt>
      <trkpt lat="46.158" lon="4.83085">
        <ele>208</ele>
        <time>2025-07-06T02:36:55Z</time>
      </trkpt>
      <trkpt lat="46.1578" lon="4.83207">
        <ele>209</ele>
        <time>2025-07-06T02:34:59Z</time>
      </trkpt>
      <trkpt lat="46.15762" lon="4.8338">
        <ele>205</ele>
        <time>2025-07-06T02:32:17Z</time>
      </trkpt>
      <trkpt lat="46.15712" lon="4.83526">
        <ele>205</ele>
        <time>2025-07-06T02:29:47Z</time>
      </trkpt>
      <trkpt lat="46.15528" lon="4.83227">
        <ele>213</ele>
        <time>2025-07-06T02:23:37Z</time>
      </trkpt>
      <trkpt lat="46.15514" lon="4.82897">
        <ele>213</ele>
        <time>2025-07-06T02:18:32Z</time>
      </trkpt>
      <trkpt lat="46.15529" lon="4.82695">
        <ele>214</ele>
        <time>2025-07-06T02:15:24Z</time>
      </trkpt>
      <trkpt lat="46.15435" lon="4.82656">
        <ele>216</ele>
        <time>2025-07-06T02:13:13Z</time>
      </trkpt>
      <trkpt lat="46.15453" lon="4.82554">
        <ele>214</ele>
        <time>2025-07-06T02:11:36Z</time>
      </trkpt>
      <trkpt lat="46.15452" lon="4.82456">
        <ele>211</ele>
        <time>2025-07-06T02:10:05Z</time>
      </trkpt>
      <trkpt lat="46.15445" lon="4.82402">
        <ele>210</ele>
        <time>2025-07-06T02:09:15Z</time>
      </trkpt>
      <trkpt lat="46.15406" lon="4.82255">
        <ele>206</ele>
        <time>2025-07-06T02:06:49Z</time>
      </trkpt>
      <trkpt lat="46.15435" lon="4.8218">
        <ele>201</ele>
        <time>2025-07-06T02:05:30Z</time>
      </trkpt>
      <trkpt lat="46.15494" lon="4.8211">
        <ele>195</ele>
        <time>2025-07-06T02:03:48Z</time>
      </trkpt>
      <trkpt lat="46.15561" lon="4.81969">
        <ele>193</ele>
        <time>2025-07-06T02:01:10Z</time>
      </trkpt>
      <trkpt lat="46.15572" lon="4.81638">
        <ele>179</ele>
        <time>2025-07-06T01:56:03Z</time>
      </trkpt>
      <trkpt lat="46.15587" lon="4.81399">
        <ele>174</ele>
        <time>2025-07-06T01:52:22Z</time>
      </trkpt>
      <trkpt lat="46.1556" lon="4.81172">
        <ele>170</ele>
        <time>2025-07-06T01:48:49Z</time>
      </trkpt>
      <trkpt lat="46.15567" lon="4.80988">
        <ele>169</ele>
        <time>2025-07-06T01:45:58Z</time>
      </trkpt>
      <trkpt lat="46.15565" lon="4.80506">
        <ele>171</ele>
        <time>2025-07-06T01:38:33Z</time>
      </trkpt>
      <trkpt lat="46.15714" lon="4.80454">
        <ele>169</ele>
        <time>2025-07-06T01:35:08Z</time>
      </trkpt>
      <trkpt lat="46.15784" lon="4.80442">
        <ele>170</ele>
        <time>2025-07-06T01:33:34Z</time>
      </trkpt>
      <trkpt lat="46.15911" lon="4.80323">
        <ele>172</ele>
        <time>2025-07-06T01:30:12Z</time>
      </trkpt>
      <trkpt lat="46.16062" lon="4.80104">
        <ele>168</ele>
        <time>2025-07-06T01:25:26Z</time>
      </trkpt>
      <trkpt lat="46.1619" lon="4.79883">
        <ele>169</ele>
        <time>2025-07-06T01:21:00Z</time>
      </trkpt>
      <trkpt lat="46.16264" lon="4.79748">
        <ele>170</ele>
        <time>2025-07-06T01:18:21Z</time>
      </trkpt>
      <trkpt lat="46.16321" lon="4.79631">
        <ele>168</ele>
        <time>2025-07-06T01:16:09Z</time>
      </trkpt>
      <trkpt lat="46.1635" lon="4.79528">
        <ele>168</ele>
        <time>2025-07-06T01:14:26Z</time>
      </trkpt>
      <trkpt lat="46.16414" lon="4.79409">
        <ele>170</ele>
        <time>2025-07-06T01:12:07Z</time>
      </trkpt>
      <trkpt lat="46.16497" lon="4.79255">
        <ele>169</ele>
        <time>2025-07-06T01:09:06Z</time>
      </trkpt>
      <trkpt lat="46.16513" lon="4.79215">
        <ele>170</ele>
        <time>2025-07-06T01:08:24Z</time>
      </trkpt>
      <trkpt lat="46.1651" lon="4.79175">
        <ele>171</ele>
        <time>2025-07-06T01:07:47Z</time>
      </trkpt>
      <trkpt lat="46.16516" lon="4.7913">
        <ele>171</ele>
        <time>2025-07-06T01:07:04Z</time>
      </trkpt>
      <trkpt lat="46.16545" lon="4.7905">
        <ele>170</ele>
        <time>2025-07-06T01:05:41Z</time>
      </trkpt>
      <trkpt lat="46.1657" lon="4.79036">
        <ele>169</ele>
        <time>2025-07-06T01:05:05Z</time>
      </trkpt>
      <trkpt lat="46.16581" lon="4.79063">
        <ele>170</ele>
        <time>2025-07-06T01:04:36Z</time>
      </trkpt>
      <trkpt lat="46.16607" lon="4.79125">
        <ele>171</ele>
        <time>2025-07-06T01:03:29Z</time>
      </trkpt>
      <trkpt lat="46.16621" lon="4.79188">
        <ele>171</ele>
        <time>2025-07-06T01:02:28Z</time>
      </trkpt>
      <trkpt lat="46.16655" lon="4.79329">
        <ele>171</ele>
        <time>2025-07-06T01:00:10Z</time>
      </trkpt>
      <trkpt lat="46.1668" lon="4.79383">
        <ele>172</ele>
        <time>2025-07-06T00:59:10Z</time>
      </trkpt>
      <trkpt lat="46.16688" lon="4.79405">
        <ele>173</ele>
        <time>2025-07-06T00:58:47Z</time>
      </trkpt>
      <trkpt lat="46.16765" lon="4.79505">
        <ele>178</ele>
        <time>2025-07-06T00:56:29Z</time>
      </trkpt>
      <trkpt lat="46.16904" lon="4.7967">
        <ele>177</ele>
        <time>2025-07-06T00:52:29Z</time>
      </trkpt>
      <trkpt lat="46.17082" lon="4.79899">
        <ele>176</ele>
        <time>2025-07-06T00:47:10Z</time>
      </trkpt>
      <trkpt lat="46.17086" lon="4.79942">
        <ele>174</ele>
        <time>2025-07-06T00:46:30Z</time>
      </trkpt>
      <trkpt lat="46.17086" lon="4.79971">
        <ele>173</ele>
        <time>2025-07-06T00:46:04Z</time>
      </trkpt>
      <trkpt lat="46.1713" lon="4.80141">
        <ele>174</ele>
        <time>2025-07-06T00:43:16Z</time>
      </trkpt>
      <trkpt lat="46.17155" lon="4.80244">
        <ele>175</ele>
        <time>2025-07-06T00:41:35Z</time>
      </trkpt>
    </trkseg>
  </trk>
</gpx>